sensor_id;sensor_type;location;lat;lon;timestamp;pressure;altitude;pressure_sealevel;temperature;humidity
9676;BME280;4876;42.656;23.292;2023-07-02T00:01:52;93762.06;;;21.93;68.57
9676;BME280;4876;42.656;23.292;2023-07-02T00:04:18;93763.25;;;21.85;69.01
9676;BME280;4876;42.656;23.292;2023-07-02T00:06:46;93756.53;;;21.66;70.23
9676;BME280;4876;42.656;23.292;2023-07-02T00:09:14;93757.28;;;21.67;70.66
9676;BME280;4876;42.656;23.292;2023-07-02T00:11:43;93757.03;;;21.99;69.95
9676;BME280;4876;42.656;23.292;2023-07-02T00:14:12;93758.09;;;22.09;68.61
9676;BME280;4876;42.656;23.292;2023-07-02T00:16:43;93752.94;;;21.87;69.34
9676;BME280;4876;42.656;23.292;2023-07-02T00:19:10;93741.34;;;21.97;68.48
9676;BME280;4876;42.656;23.292;2023-07-02T00:21:37;93742.50;;;21.96;69.04
9676;BME280;4876;42.656;23.292;2023-07-02T00:24:04;93742.88;;;21.98;68.54
9676;BME280;4876;42.656;23.292;2023-07-02T00:26:31;93749.88;;;21.85;69.41
9676;BME280;4876;42.656;23.292;2023-07-02T00:28:59;93751.72;;;21.95;69.03
9676;BME280;4876;42.656;23.292;2023-07-02T00:31:27;93749.78;;;21.96;68.01
9676;BME280;4876;42.656;23.292;2023-07-02T00:33:53;93755.47;;;21.53;70.62
9676;BME280;4876;42.656;23.292;2023-07-02T00:36:20;93760.75;;;21.64;70.35
9676;BME280;4876;42.656;23.292;2023-07-02T00:38:49;93759.41;;;21.86;69.43
9676;BME280;4876;42.656;23.292;2023-07-02T00:41:16;93766.69;;;21.89;68.72
9676;BME280;4876;42.656;23.292;2023-07-02T00:43:43;93766.38;;;21.80;69.41
9676;BME280;4876;42.656;23.292;2023-07-02T00:46:14;93760.91;;;21.94;68.51
9676;BME280;4876;42.656;23.292;2023-07-02T00:48:43;93770.94;;;21.83;69.20
9676;BME280;4876;42.656;23.292;2023-07-02T00:51:11;93772.31;;;21.98;68.52
9676;BME280;4876;42.656;23.292;2023-07-02T00:53:39;93775.06;;;21.91;69.35
9676;BME280;4876;42.656;23.292;2023-07-02T00:56:06;93769.72;;;21.39;70.96
9676;BME280;4876;42.656;23.292;2023-07-02T00:58:35;93759.41;;;21.38;71.86
9676;BME280;4876;42.656;23.292;2023-07-02T01:01:04;93746.63;;;21.01;73.36
9676;BME280;4876;42.656;23.292;2023-07-02T01:03:32;93768.25;;;21.24;73.17
9676;BME280;4876;42.656;23.292;2023-07-02T01:06:03;93758.94;;;20.73;75.38
9676;BME280;4876;42.656;23.292;2023-07-02T01:08:30;93764.78;;;21.27;73.64
9676;BME280;4876;42.656;23.292;2023-07-02T01:10:57;93771.59;;;21.46;72.71
9676;BME280;4876;42.656;23.292;2023-07-02T01:13:25;93760.53;;;21.40;72.72
9676;BME280;4876;42.656;23.292;2023-07-02T01:15:52;93753.34;;;21.27;73.13
9676;BME280;4876;42.656;23.292;2023-07-02T01:18:19;93747.13;;;20.67;75.96
9676;BME280;4876;42.656;23.292;2023-07-02T01:20:47;93751.41;;;20.32;77.17
9676;BME280;4876;42.656;23.292;2023-07-02T01:23:14;93754.47;;;20.24;78.49
9676;BME280;4876;42.656;23.292;2023-07-02T01:25:41;93753.63;;;20.66;76.44
9676;BME280;4876;42.656;23.292;2023-07-02T01:28:10;93741.88;;;20.46;77.15
9676;BME280;4876;42.656;23.292;2023-07-02T01:30:39;93726.69;;;19.93;79.42
9676;BME280;4876;42.656;23.292;2023-07-02T01:33:06;93734.34;;;19.94;80.03
9676;BME280;4876;42.656;23.292;2023-07-02T01:35:32;93726.31;;;19.80;81.04
9676;BME280;4876;42.656;23.292;2023-07-02T01:38:01;93731.31;;;19.81;80.66
9676;BME280;4876;42.656;23.292;2023-07-02T01:40:27;93743.84;;;19.92;80.77
9676;BME280;4876;42.656;23.292;2023-07-02T01:42:54;93721.00;;;19.66;81.55
9676;BME280;4876;42.656;23.292;2023-07-02T01:45:21;93720.94;;;19.01;85.61
9676;BME280;4876;42.656;23.292;2023-07-02T01:47:48;93723.81;;;18.57;90.05
9676;BME280;4876;42.656;23.292;2023-07-02T01:50:15;93720.69;;;18.34;93.06
9676;BME280;4876;42.656;23.292;2023-07-02T01:52:41;93726.28;;;18.18;94.66
9676;BME280;4876;42.656;23.292;2023-07-02T01:55:10;93699.88;;;17.88;99.38
9676;BME280;4876;42.656;23.292;2023-07-02T01:57:36;93712.78;;;17.86;100.00
9676;BME280;4876;42.656;23.292;2023-07-02T02:00:04;93712.41;;;17.84;100.00
9676;BME280;4876;42.656;23.292;2023-07-02T02:02:32;93711.53;;;18.27;100.00
9676;BME280;4876;42.656;23.292;2023-07-02T02:04:59;93705.56;;;18.63;100.00
9676;BME280;4876;42.656;23.292;2023-07-02T02:07:26;93713.22;;;18.75;100.00
9676;BME280;4876;42.656;23.292;2023-07-02T02:09:52;93711.59;;;18.49;100.00
9676;BME280;4876;42.656;23.292;2023-07-02T02:12:21;93714.41;;;18.81;100.00
9676;BME280;4876;42.656;23.292;2023-07-02T02:14:47;93712.94;;;19.05;98.00
9676;BME280;4876;42.656;23.292;2023-07-02T02:17:14;93706.09;;;19.29;94.77
9676;BME280;4876;42.656;23.292;2023-07-02T02:19:41;93700.41;;;19.20;95.35
9676;BME280;4876;42.656;23.292;2023-07-02T02:22:08;93705.34;;;19.07;95.50
9676;BME280;4876;42.656;23.292;2023-07-02T02:24:34;93700.38;;;19.16;95.53
9676;BME280;4876;42.656;23.292;2023-07-02T02:27:01;93692.03;;;19.21;94.27
9676;BME280;4876;42.656;23.292;2023-07-02T02:29:29;93689.34;;;19.28;92.71
9676;BME280;4876;42.656;23.292;2023-07-02T02:31:56;93693.84;;;18.78;98.06
9676;BME280;4876;42.656;23.292;2023-07-02T02:34:23;93691.94;;;18.78;97.90
9676;BME280;4876;42.656;23.292;2023-07-02T02:36:50;93697.13;;;18.43;99.10
9676;BME280;4876;42.656;23.292;2023-07-02T02:39:16;93693.06;;;18.70;99.52
9676;BME280;4876;42.656;23.292;2023-07-02T02:41:43;93671.47;;;18.06;100.00
9676;BME280;4876;42.656;23.292;2023-07-02T02:44:10;93677.91;;;17.98;100.00
9676;BME280;4876;42.656;23.292;2023-07-02T02:46:38;93680.19;;;17.99;100.00
9676;BME280;4876;42.656;23.292;2023-07-02T02:49:05;93683.34;;;18.23;100.00
9676;BME280;4876;42.656;23.292;2023-07-02T02:51:31;93690.94;;;18.14;100.00
9676;BME280;4876;42.656;23.292;2023-07-02T02:53:58;93696.75;;;17.71;100.00
9676;BME280;4876;42.656;23.292;2023-07-02T02:56:25;93706.06;;;18.06;100.00
9676;BME280;4876;42.656;23.292;2023-07-02T02:58:52;93714.09;;;18.13;100.00
9676;BME280;4876;42.656;23.292;2023-07-02T03:01:19;93708.22;;;17.83;100.00
9676;BME280;4876;42.656;23.292;2023-07-02T03:03:47;93712.13;;;17.99;100.00
9676;BME280;4876;42.656;23.292;2023-07-02T03:06:14;93705.41;;;18.23;100.00
9676;BME280;4876;42.656;23.292;2023-07-02T03:08:41;93700.09;;;18.23;100.00
9676;BME280;4876;42.656;23.292;2023-07-02T03:11:08;93697.03;;;18.21;100.00
9676;BME280;4876;42.656;23.292;2023-07-02T03:13:34;93705.47;;;18.34;100.00
9676;BME280;4876;42.656;23.292;2023-07-02T03:16:01;93699.38;;;18.37;100.00
9676;BME280;4876;42.656;23.292;2023-07-02T03:18:28;93697.09;;;18.36;100.00
9676;BME280;4876;42.656;23.292;2023-07-02T03:20:56;93707.03;;;18.49;100.00
9676;BME280;4876;42.656;23.292;2023-07-02T03:23:23;93709.28;;;18.44;100.00
9676;BME280;4876;42.656;23.292;2023-07-02T03:25:50;93719.16;;;18.36;100.00
9676;BME280;4876;42.656;23.292;2023-07-02T03:28:17;93727.19;;;18.50;100.00
9676;BME280;4876;42.656;23.292;2023-07-02T03:30:43;93728.03;;;18.65;100.00
9676;BME280;4876;42.656;23.292;2023-07-02T03:33:10;93741.06;;;18.92;100.00
9676;BME280;4876;42.656;23.292;2023-07-02T03:35:37;93737.72;;;19.30;100.00
9676;BME280;4876;42.656;23.292;2023-07-02T03:38:05;93733.22;;;19.63;99.18
9676;BME280;4876;42.656;23.292;2023-07-02T03:40:32;93733.97;;;19.81;96.06
9676;BME280;4876;42.656;23.292;2023-07-02T03:42:59;93732.03;;;19.93;93.92
9676;BME280;4876;42.656;23.292;2023-07-02T03:45:26;93731.25;;;20.10;93.76
9676;BME280;4876;42.656;23.292;2023-07-02T03:47:52;93730.44;;;20.34;91.75
9676;BME280;4876;42.656;23.292;2023-07-02T03:50:19;93723.84;;;20.71;88.86
9676;BME280;4876;42.656;23.292;2023-07-02T03:52:46;93727.34;;;20.36;88.85
9676;BME280;4876;42.656;23.292;2023-07-02T03:55:15;93724.72;;;20.32;91.21
9676;BME280;4876;42.656;23.292;2023-07-02T03:57:41;93722.34;;;20.59;87.93
9676;BME280;4876;42.656;23.292;2023-07-02T04:00:09;93718.97;;;20.48;87.43
9676;BME280;4876;42.656;23.292;2023-07-02T04:02:36;93717.53;;;20.08;91.58
9676;BME280;4876;42.656;23.292;2023-07-02T04:05:04;93724.69;;;20.36;89.54
9676;BME280;4876;42.656;23.292;2023-07-02T04:07:31;93729.53;;;20.73;87.07
9676;BME280;4876;42.656;23.292;2023-07-02T04:09:58;93731.88;;;20.64;86.46
9676;BME280;4876;42.656;23.292;2023-07-02T04:12:26;93737.97;;;20.68;85.31
9676;BME280;4876;42.656;23.292;2023-07-02T04:14:53;93735.25;;;20.82;84.62
9676;BME280;4876;42.656;23.292;2023-07-02T04:17:20;93742.78;;;21.02;84.12
9676;BME280;4876;42.656;23.292;2023-07-02T04:19:46;93743.78;;;21.29;82.77
9676;BME280;4876;42.656;23.292;2023-07-02T04:22:14;93748.78;;;21.20;79.93
9676;BME280;4876;42.656;23.292;2023-07-02T04:24:41;93759.06;;;21.29;80.93
9676;BME280;4876;42.656;23.292;2023-07-02T04:27:08;93762.56;;;21.11;79.37
9676;BME280;4876;42.656;23.292;2023-07-02T04:29:36;93770.03;;;20.68;80.51
9676;BME280;4876;42.656;23.292;2023-07-02T04:32:04;93767.78;;;20.41;78.49
9676;BME280;4876;42.656;23.292;2023-07-02T04:34:30;93765.50;;;20.58;79.00
9676;BME280;4876;42.656;23.292;2023-07-02T04:36:57;93766.66;;;20.53;80.90
9676;BME280;4876;42.656;23.292;2023-07-02T04:39:24;93778.81;;;20.61;79.33
9676;BME280;4876;42.656;23.292;2023-07-02T04:41:51;93786.47;;;20.56;78.08
9676;BME280;4876;42.656;23.292;2023-07-02T04:44:18;93786.56;;;19.95;80.94
9676;BME280;4876;42.656;23.292;2023-07-02T04:46:56;93783.50;;;19.89;81.96
9676;BME280;4876;42.656;23.292;2023-07-02T04:49:23;93782.72;;;20.00;82.23
9676;BME280;4876;42.656;23.292;2023-07-02T04:51:49;93789.25;;;19.88;81.83
9676;BME280;4876;42.656;23.292;2023-07-02T04:54:16;93789.59;;;19.65;83.63
9676;BME280;4876;42.656;23.292;2023-07-02T04:56:43;93788.47;;;19.77;82.78
9676;BME280;4876;42.656;23.292;2023-07-02T04:59:10;93793.41;;;20.00;81.52
9676;BME280;4876;42.656;23.292;2023-07-02T05:01:36;93793.03;;;19.76;82.84
9676;BME280;4876;42.656;23.292;2023-07-02T05:04:05;93787.69;;;19.80;82.26
9676;BME280;4876;42.656;23.292;2023-07-02T05:06:32;93801.44;;;19.78;81.09
9676;BME280;4876;42.656;23.292;2023-07-02T05:08:59;93797.22;;;19.84;81.35
9676;BME280;4876;42.656;23.292;2023-07-02T05:11:26;93795.72;;;19.83;82.00
9676;BME280;4876;42.656;23.292;2023-07-02T05:13:53;93794.56;;;19.84;82.09
9676;BME280;4876;42.656;23.292;2023-07-02T05:16:20;93796.03;;;19.53;83.86
9676;BME280;4876;42.656;23.292;2023-07-02T05:18:46;93796.09;;;19.78;83.78
9676;BME280;4876;42.656;23.292;2023-07-02T05:21:17;93806.34;;;20.30;82.68
9676;BME280;4876;42.656;23.292;2023-07-02T05:23:44;93803.31;;;20.46;84.80
9676;BME280;4876;42.656;23.292;2023-07-02T05:26:11;93796.44;;;20.27;85.92
9676;BME280;4876;42.656;23.292;2023-07-02T05:28:38;93800.63;;;20.46;84.39
9676;BME280;4876;42.656;23.292;2023-07-02T05:31:04;93796.44;;;20.34;85.69
9676;BME280;4876;42.656;23.292;2023-07-02T05:33:31;93796.09;;;20.03;85.33
9676;BME280;4876;42.656;23.292;2023-07-02T05:35:58;93796.09;;;20.07;84.99
9676;BME280;4876;42.656;23.292;2023-07-02T05:38:26;93799.53;;;19.82;83.89
9676;BME280;4876;42.656;23.292;2023-07-02T05:40:53;93810.19;;;19.75;86.22
9676;BME280;4876;42.656;23.292;2023-07-02T05:43:20;93814.38;;;19.58;86.68
9676;BME280;4876;42.656;23.292;2023-07-02T05:45:47;93811.25;;;19.42;89.39
9676;BME280;4876;42.656;23.292;2023-07-02T05:48:13;93806.25;;;19.23;89.58
9676;BME280;4876;42.656;23.292;2023-07-02T05:50:40;93808.38;;;18.74;95.23
9676;BME280;4876;42.656;23.292;2023-07-02T05:53:07;93816.78;;;18.83;97.34
9676;BME280;4876;42.656;23.292;2023-07-02T05:55:36;93813.03;;;18.99;97.17
9676;BME280;4876;42.656;23.292;2023-07-02T05:58:02;93820.34;;;19.20;97.83
9676;BME280;4876;42.656;23.292;2023-07-02T06:00:39;93814.59;;;19.07;96.49
9676;BME280;4876;42.656;23.292;2023-07-02T06:03:07;93810.09;;;19.43;95.17
9676;BME280;4876;42.656;23.292;2023-07-02T06:05:34;93801.00;;;19.55;94.52
9676;BME280;4876;42.656;23.292;2023-07-02T06:08:00;93807.16;;;19.70;92.96
9676;BME280;4876;42.656;23.292;2023-07-02T06:10:27;93804.06;;;19.75;90.42
9676;BME280;4876;42.656;23.292;2023-07-02T06:12:55;93797.97;;;19.74;90.84
9676;BME280;4876;42.656;23.292;2023-07-02T06:15:22;93797.22;;;19.67;93.11
9676;BME280;4876;42.656;23.292;2023-07-02T06:17:50;93799.91;;;19.84;91.49
9676;BME280;4876;42.656;23.292;2023-07-02T06:20:16;93791.91;;;19.95;89.56
9676;BME280;4876;42.656;23.292;2023-07-02T06:22:43;93800.66;;;20.10;89.16
9676;BME280;4876;42.656;23.292;2023-07-02T06:25:10;93793.38;;;20.32;87.91
9676;BME280;4876;42.656;23.292;2023-07-02T06:27:36;93791.47;;;20.47;86.40
9676;BME280;4876;42.656;23.292;2023-07-02T06:30:06;93795.63;;;20.69;85.43
9676;BME280;4876;42.656;23.292;2023-07-02T06:32:33;93787.16;;;20.85;85.20
9676;BME280;4876;42.656;23.292;2023-07-02T06:35:00;93786.09;;;20.61;84.39
9676;BME280;4876;42.656;23.292;2023-07-02T06:37:27;93781.47;;;20.72;86.51
9676;BME280;4876;42.656;23.292;2023-07-02T06:39:53;93787.56;;;20.76;88.65
9676;BME280;4876;42.656;23.292;2023-07-02T06:42:21;93789.44;;;20.86;85.19
9676;BME280;4876;42.656;23.292;2023-07-02T06:44:47;93779.88;;;20.85;83.85
9676;BME280;4876;42.656;23.292;2023-07-02T06:47:16;93789.09;;;20.74;85.07
9676;BME280;4876;42.656;23.292;2023-07-02T06:49:43;93782.59;;;20.78;86.06
9676;BME280;4876;42.656;23.292;2023-07-02T06:52:10;93769.69;;;20.62;87.51
9676;BME280;4876;42.656;23.292;2023-07-02T06:54:37;93782.66;;;20.64;86.99
9676;BME280;4876;42.656;23.292;2023-07-02T06:57:04;93781.09;;;20.70;85.27
9676;BME280;4876;42.656;23.292;2023-07-02T06:59:31;93793.31;;;20.67;83.94
9676;BME280;4876;42.656;23.292;2023-07-02T07:01:58;93789.88;;;20.70;85.75
9676;BME280;4876;42.656;23.292;2023-07-02T07:04:26;93785.69;;;20.69;87.45
9676;BME280;4876;42.656;23.292;2023-07-02T07:06:53;93789.13;;;20.66;84.99
9676;BME280;4876;42.656;23.292;2023-07-02T07:09:21;93789.94;;;20.46;83.22
9676;BME280;4876;42.656;23.292;2023-07-02T07:11:47;93793.38;;;20.50;83.45
9676;BME280;4876;42.656;23.292;2023-07-02T07:14:14;93801.00;;;20.48;82.43
9676;BME280;4876;42.656;23.292;2023-07-02T07:16:41;93797.19;;;20.49;83.17
9676;BME280;4876;42.656;23.292;2023-07-02T07:19:08;93796.44;;;20.52;82.60
9676;BME280;4876;42.656;23.292;2023-07-02T07:21:36;93793.31;;;20.75;83.90
9676;BME280;4876;42.656;23.292;2023-07-02T07:24:03;93791.72;;;20.84;83.36
9676;BME280;4876;42.656;23.292;2023-07-02T07:26:30;93794.81;;;20.83;82.41
9676;BME280;4876;42.656;23.292;2023-07-02T07:28:57;93801.97;;;21.04;83.62
9676;BME280;4876;42.656;23.292;2023-07-02T07:31:24;93799.94;;;21.29;83.30
9676;BME280;4876;42.656;23.292;2023-07-02T07:33:51;93792.13;;;21.60;81.14
9676;BME280;4876;42.656;23.292;2023-07-02T07:36:17;93791.88;;;21.43;78.01
9676;BME280;4876;42.656;23.292;2023-07-02T07:38:45;93777.66;;;21.54;78.05
9676;BME280;4876;42.656;23.292;2023-07-02T07:41:12;93791.06;;;21.98;77.01
9676;BME280;4876;42.656;23.292;2023-07-02T07:43:39;93782.34;;;21.91;74.81
9676;BME280;4876;42.656;23.292;2023-07-02T07:46:06;93788.84;;;21.93;73.30
9676;BME280;4876;42.656;23.292;2023-07-02T07:48:33;93791.88;;;21.92;72.59
9676;BME280;4876;42.656;23.292;2023-07-02T07:51:00;93790.59;;;21.59;73.55
9676;BME280;4876;42.656;23.292;2023-07-02T07:53:27;93786.13;;;21.41;73.39
9676;BME280;4876;42.656;23.292;2023-07-02T07:55:55;93789.97;;;21.40;75.20
9676;BME280;4876;42.656;23.292;2023-07-02T07:58:22;93786.19;;;21.27;72.64
9676;BME280;4876;42.656;23.292;2023-07-02T08:00:49;93791.50;;;21.38;75.14
9676;BME280;4876;42.656;23.292;2023-07-02T08:03:16;93791.06;;;21.98;75.99
9676;BME280;4876;42.656;23.292;2023-07-02T08:05:42;93782.22;;;22.50;73.14
9676;BME280;4876;42.656;23.292;2023-07-02T08:08:09;93783.91;;;22.71;72.21
9676;BME280;4876;42.656;23.292;2023-07-02T08:10:36;93788.75;;;22.87;71.96
9676;BME280;4876;42.656;23.292;2023-07-02T08:13:04;93787.16;;;22.89;70.94
9676;BME280;4876;42.656;23.292;2023-07-02T08:15:31;93788.56;;;23.01;71.31
9676;BME280;4876;42.656;23.292;2023-07-02T08:17:58;93792.19;;;22.87;69.59
9676;BME280;4876;42.656;23.292;2023-07-02T08:20:25;93786.00;;;23.21;72.12
9676;BME280;4876;42.656;23.292;2023-07-02T08:22:52;93790.84;;;23.87;69.12
9676;BME280;4876;42.656;23.292;2023-07-02T08:25:19;93782.31;;;24.15;65.85
9676;BME280;4876;42.656;23.292;2023-07-02T08:27:47;93789.78;;;24.28;63.98
9676;BME280;4876;42.656;23.292;2023-07-02T08:30:15;93794.59;;;24.16;65.21
9676;BME280;4876;42.656;23.292;2023-07-02T08:32:42;93781.88;;;24.44;66.05
9676;BME280;4876;42.656;23.292;2023-07-02T08:35:09;93781.56;;;24.15;63.90
9676;BME280;4876;42.656;23.292;2023-07-02T08:37:35;93781.72;;;24.51;65.68
9676;BME280;4876;42.656;23.292;2023-07-02T08:40:03;93789.31;;;24.56;63.01
9676;BME280;4876;42.656;23.292;2023-07-02T08:42:31;93783.84;;;24.16;63.56
9676;BME280;4876;42.656;23.292;2023-07-02T08:44:59;93788.75;;;24.22;66.18
9676;BME280;4876;42.656;23.292;2023-07-02T08:47:27;93791.03;;;24.00;65.24
9676;BME280;4876;42.656;23.292;2023-07-02T08:49:54;93778.03;;;23.44;66.74
9676;BME280;4876;42.656;23.292;2023-07-02T08:52:21;93780.59;;;23.51;67.93
9676;BME280;4876;42.656;23.292;2023-07-02T08:54:48;93786.50;;;23.70;68.53
9676;BME280;4876;42.656;23.292;2023-07-02T08:57:15;93776.91;;;23.96;68.52
9676;BME280;4876;42.656;23.292;2023-07-02T08:59:42;93781.31;;;23.55;66.73
9676;BME280;4876;42.656;23.292;2023-07-02T09:02:09;93767.50;;;23.30;67.75
9676;BME280;4876;42.656;23.292;2023-07-02T09:04:37;93784.84;;;23.22;68.28
9676;BME280;4876;42.656;23.292;2023-07-02T09:07:05;93784.91;;;23.18;68.43
9676;BME280;4876;42.656;23.292;2023-07-02T09:09:32;93777.88;;;23.55;68.53
9676;BME280;4876;42.656;23.292;2023-07-02T09:11:59;93776.50;;;23.43;67.80
9676;BME280;4876;42.656;23.292;2023-07-02T09:14:27;93771.50;;;23.45;68.75
9676;BME280;4876;42.656;23.292;2023-07-02T09:17:04;93782.97;;;23.19;68.60
9676;BME280;4876;42.656;23.292;2023-07-02T09:19:31;93780.00;;;23.40;69.47
9676;BME280;4876;42.656;23.292;2023-07-02T09:22:00;93778.06;;;23.95;67.96
9676;BME280;4876;42.656;23.292;2023-07-02T09:24:28;93775.78;;;23.93;66.99
9676;BME280;4876;42.656;23.292;2023-07-02T09:26:56;93778.81;;;23.41;68.59
9676;BME280;4876;42.656;23.292;2023-07-02T09:29:24;93764.84;;;23.53;68.86
9676;BME280;4876;42.656;23.292;2023-07-02T09:31:54;93776.22;;;23.64;68.28
9676;BME280;4876;42.656;23.292;2023-07-02T09:34:27;93774.84;;;23.80;68.18
9676;BME280;4876;42.656;23.292;2023-07-02T09:36:55;93769.00;;;23.85;67.57
9676;BME280;4876;42.656;23.292;2023-07-02T09:39:26;93775.81;;;24.16;65.72
9676;BME280;4876;42.656;23.292;2023-07-02T09:41:55;93768.31;;;24.04;66.27
9676;BME280;4876;42.656;23.292;2023-07-02T09:44:23;93768.41;;;24.21;67.19
9676;BME280;4876;42.656;23.292;2023-07-02T09:46:58;93768.44;;;24.44;65.84
9676;BME280;4876;42.656;23.292;2023-07-02T09:49:25;93766.97;;;24.59;65.65
9676;BME280;4876;42.656;23.292;2023-07-02T09:51:53;93760.16;;;24.94;65.88
9676;BME280;4876;42.656;23.292;2023-07-02T09:54:20;93760.66;;;25.09;61.59
9676;BME280;4876;42.656;23.292;2023-07-02T09:56:48;93762.41;;;25.36;61.39
9676;BME280;4876;42.656;23.292;2023-07-02T09:59:15;93762.75;;;25.38;60.47
9676;BME280;4876;42.656;23.292;2023-07-02T10:01:42;93761.13;;;25.76;61.46
9676;BME280;4876;42.656;23.292;2023-07-02T10:04:12;93765.84;;;25.89;61.94
9676;BME280;4876;42.656;23.292;2023-07-02T10:06:50;93731.84;;;25.79;61.07
9676;BME280;4876;42.656;23.292;2023-07-02T10:09:18;93760.59;;;26.14;60.19
9676;BME280;4876;42.656;23.292;2023-07-02T10:11:45;93755.66;;;25.96;61.40
9676;BME280;4876;42.656;23.292;2023-07-02T10:14:14;93752.34;;;25.72;60.29
9676;BME280;4876;42.656;23.292;2023-07-02T10:16:51;93740.50;;;25.86;60.64
9676;BME280;4876;42.656;23.292;2023-07-02T10:19:18;93735.94;;;25.83;60.77
9676;BME280;4876;42.656;23.292;2023-07-02T10:21:45;93716.16;;;25.90;60.11
9676;BME280;4876;42.656;23.292;2023-07-02T10:24:16;93718.00;;;26.09;61.52
9676;BME280;4876;42.656;23.292;2023-07-02T10:26:53;93720.59;;;26.13;60.54
9676;BME280;4876;42.656;23.292;2023-07-02T10:29:22;93719.53;;;25.94;61.21
9676;BME280;4876;42.656;23.292;2023-07-02T10:31:49;93720.03;;;26.05;59.64
9676;BME280;4876;42.656;23.292;2023-07-02T10:34:27;93716.72;;;26.14;60.14
9676;BME280;4876;42.656;23.292;2023-07-02T10:36:54;93716.81;;;26.10;59.06
9676;BME280;4876;42.656;23.292;2023-07-02T10:39:21;93727.84;;;25.83;59.34
9676;BME280;4876;42.656;23.292;2023-07-02T10:41:48;93724.84;;;25.81;59.10
9676;BME280;4876;42.656;23.292;2023-07-02T10:44:14;93734.00;;;26.00;59.51
9676;BME280;4876;42.656;23.292;2023-07-02T10:46:47;93728.53;;;26.33;58.77
9676;BME280;4876;42.656;23.292;2023-07-02T10:49:14;93718.91;;;26.77;57.65
9676;BME280;4876;42.656;23.292;2023-07-02T10:51:41;93725.03;;;27.19;56.70
9676;BME280;4876;42.656;23.292;2023-07-02T10:54:08;93724.38;;;27.02;53.86
9676;BME280;4876;42.656;23.292;2023-07-02T10:56:35;93725.56;;;26.60;56.78
9676;BME280;4876;42.656;23.292;2023-07-02T10:59:02;93720.94;;;26.60;56.37
9676;BME280;4876;42.656;23.292;2023-07-02T11:01:30;93719.63;;;26.36;57.11
9676;BME280;4876;42.656;23.292;2023-07-02T11:04:02;93711.28;;;25.85;55.65
9676;BME280;4876;42.656;23.292;2023-07-02T11:06:31;93715.38;;;26.06;57.17
9676;BME280;4876;42.656;23.292;2023-07-02T11:08:59;93706.47;;;26.38;55.79
9676;BME280;4876;42.656;23.292;2023-07-02T11:11:26;93712.78;;;26.47;56.11
9676;BME280;4876;42.656;23.292;2023-07-02T11:13:54;93705.47;;;26.31;58.02
9676;BME280;4876;42.656;23.292;2023-07-02T11:16:23;93716.47;;;26.53;56.79
9676;BME280;4876;42.656;23.292;2023-07-02T11:18:52;93707.75;;;26.62;55.99
9676;BME280;4876;42.656;23.292;2023-07-02T11:21:20;93716.25;;;26.31;55.73
9676;BME280;4876;42.656;23.292;2023-07-02T11:23:47;93718.28;;;26.44;56.57
9676;BME280;4876;42.656;23.292;2023-07-02T11:26:14;93718.94;;;26.31;53.83
9676;BME280;4876;42.656;23.292;2023-07-02T11:28:50;93718.94;;;26.48;51.18
9676;BME280;4876;42.656;23.292;2023-07-02T11:31:27;93715.31;;;26.67;53.01
9676;BME280;4876;42.656;23.292;2023-07-02T11:33:54;93732.56;;;26.57;55.51
9676;BME280;4876;42.656;23.292;2023-07-02T11:36:23;93724.59;;;25.75;58.46
9676;BME280;4876;42.656;23.292;2023-07-02T11:38:51;93729.25;;;25.39;60.54
9676;BME280;4876;42.656;23.292;2023-07-02T11:41:18;93723.47;;;25.40;59.92
9676;BME280;4876;42.656;23.292;2023-07-02T11:43:46;93729.41;;;25.32;61.70
9676;BME280;4876;42.656;23.292;2023-07-02T11:46:13;93730.53;;;24.78;60.44
9676;BME280;4876;42.656;23.292;2023-07-02T11:48:40;93715.75;;;24.86;59.38
9676;BME280;4876;42.656;23.292;2023-07-02T11:51:07;93746.38;;;24.53;59.15
9676;BME280;4876;42.656;23.292;2023-07-02T11:53:35;93729.63;;;24.65;60.46
9676;BME280;4876;42.656;23.292;2023-07-02T11:56:02;93745.53;;;24.76;54.81
9676;BME280;4876;42.656;23.292;2023-07-02T11:58:29;93735.81;;;24.82;54.66
9676;BME280;4876;42.656;23.292;2023-07-02T12:00:56;93742.06;;;25.15;54.94
9676;BME280;4876;42.656;23.292;2023-07-02T12:03:23;93748.03;;;25.59;53.77
9676;BME280;4876;42.656;23.292;2023-07-02T12:05:49;93750.03;;;25.22;55.25
9676;BME280;4876;42.656;23.292;2023-07-02T12:08:16;93745.31;;;25.26;55.22
9676;BME280;4876;42.656;23.292;2023-07-02T12:10:45;93747.94;;;25.30;56.51
9676;BME280;4876;42.656;23.292;2023-07-02T12:13:11;93744.69;;;25.18;56.91
9676;BME280;4876;42.656;23.292;2023-07-02T12:15:38;93748.03;;;25.06;58.16
9676;BME280;4876;42.656;23.292;2023-07-02T12:18:05;93751.75;;;25.12;58.06
9676;BME280;4876;42.656;23.292;2023-07-02T12:20:32;93755.88;;;25.17;64.42
9676;BME280;4876;42.656;23.292;2023-07-02T12:22:59;93756.53;;;24.85;67.62
9676;BME280;4876;42.656;23.292;2023-07-02T12:25:26;93752.56;;;24.50;74.76
9676;BME280;4876;42.656;23.292;2023-07-02T12:27:55;93746.84;;;24.04;76.32
9676;BME280;4876;42.656;23.292;2023-07-02T12:30:21;93745.13;;;23.90;78.16
9676;BME280;4876;42.656;23.292;2023-07-02T12:32:48;93739.06;;;24.10;77.88
9676;BME280;4876;42.656;23.292;2023-07-02T12:35:15;93737.19;;;24.07;77.51
9676;BME280;4876;42.656;23.292;2023-07-02T12:37:46;93682.69;;;23.59;77.59
9676;BME280;4876;42.656;23.292;2023-07-02T12:40:13;93738.06;;;24.00;77.85
9676;BME280;4876;42.656;23.292;2023-07-02T12:42:41;93739.56;;;24.25;74.75
9676;BME280;4876;42.656;23.292;2023-07-02T12:45:12;93745.28;;;24.50;75.21
9676;BME280;4876;42.656;23.292;2023-07-02T12:47:40;93741.88;;;24.46;77.53
9676;BME280;4876;42.656;23.292;2023-07-02T12:50:10;93718.31;;;24.34;73.38
9676;BME280;4876;42.656;23.292;2023-07-02T12:52:37;93733.16;;;24.18;73.19
9676;BME280;4876;42.656;23.292;2023-07-02T12:55:05;93746.59;;;24.42;68.56
9676;BME280;4876;42.656;23.292;2023-07-02T12:57:32;93737.91;;;24.54;67.19
9676;BME280;4876;42.656;23.292;2023-07-02T12:59:58;93732.53;;;24.54;70.80
9676;BME280;4876;42.656;23.292;2023-07-02T13:02:26;93727.59;;;24.89;70.57
9676;BME280;4876;42.656;23.292;2023-07-02T13:04:53;93731.25;;;25.18;63.85
9676;BME280;4876;42.656;23.292;2023-07-02T13:07:20;93723.97;;;25.35;65.03
9676;BME280;4876;42.656;23.292;2023-07-02T13:09:48;93733.13;;;25.38;65.16
9676;BME280;4876;42.656;23.292;2023-07-02T13:12:15;93724.22;;;25.57;60.84